Time;durP1;ratioP1;P1;durP2;ratioP2;P2;SDS_P1;SDS_P2;PMS_P1;PMS_P2;Temp;Humidity;BMP_temperature;BMP_pressure;BME280_temperature;BME280_humidity;BME280_pressure;Samples;Min_cycle;Max_cycle;Signal;HPM_P1;HPM_P2
2021/01/17 00:02:23;;;;;;;5.77;4.00;;;;;;;-1.17;73.22;100656.84;4992320;28;20763;-75
2021/01/17 00:04:48;;;;;;;8.27;7.47;;;;;;;-1.21;73.42;100656.47;4993137;28;20185;-75
2021/01/17 00:07:14;;;;;;;5.00;3.80;;;;;;;-1.25;72.00;100652.63;4992802;28;20638;-75
2021/01/17 00:09:39;;;;;;;5.20;4.63;;;;;;;-1.31;72.68;100657.03;4993121;28;20637;-74
2021/01/17 00:12:05;;;;;;;6.03;5.43;;;;;;;-1.34;72.24;100654.00;4993290;28;20585;-76
2021/01/17 00:14:32;;;;;;;3.60;2.97;;;;;;;-1.34;72.75;100648.63;4992929;28;20708;-76
2021/01/17 00:16:58;;;;;;;4.97;4.47;;;;;;;-1.37;72.71;100647.22;4992393;28;20236;-75
2021/01/17 00:19:23;;;;;;;9.97;8.97;;;;;;;-1.36;73.50;100648.03;4992867;28;20420;-77
2021/01/17 00:21:49;;;;;;;9.60;8.70;;;;;;;-1.34;73.64;100648.63;4992679;28;20530;-76
2021/01/17 00:24:14;;;;;;;10.20;9.03;;;;;;;-1.40;73.76;100649.56;4992720;28;20173;-75
2021/01/17 00:26:39;;;;;;;5.27;4.57;;;;;;;-1.35;73.08;100645.13;4992173;28;20268;-75
2021/01/17 00:29:05;;;;;;;4.23;3.93;;;;;;;-1.38;72.92;100642.91;4992867;28;20185;-76
2021/01/17 00:31:37;;;;;;;3.83;3.43;;;;;;;-1.41;73.30;100638.00;4991641;28;20536;-76
2021/01/17 00:34:03;;;;;;;8.47;7.77;;;;;;;-1.38;73.03;100634.88;4992603;28;20177;-77
2021/01/17 00:36:28;;;;;;;6.10;5.50;;;;;;;-1.37;73.45;100628.47;4992359;28;20479;-76
2021/01/17 00:38:54;;;;;;;6.87;6.03;;;;;;;-1.41;72.76;100627.31;4992423;28;20424;-77
2021/01/17 00:41:19;;;;;;;4.73;4.13;;;;;;;-1.41;72.93;100627.31;4992499;28;20215;-75
2021/01/17 00:43:44;;;;;;;9.10;7.93;;;;;;;-1.45;73.50;100631.47;4992450;28;20177;-76
2021/01/17 00:46:10;;;;;;;8.30;7.60;;;;;;;-1.41;72.61;100621.94;4992161;28;20177;-76
2021/01/17 00:48:35;;;;;;;8.50;7.70;;;;;;;-1.38;72.31;100623.34;4992337;28;20185;-75
2021/01/17 00:51:00;;;;;;;7.90;7.20;;;;;;;-1.37;72.41;100615.06;4992037;28;20177;-75
2021/01/17 00:53:26;;;;;;;8.67;6.97;;;;;;;-1.41;72.36;100618.44;4992428;28;20181;-76
2021/01/17 00:55:51;;;;;;;8.33;7.63;;;;;;;-1.41;71.80;100610.41;4992092;28;20648;-75
2021/01/17 00:58:17;;;;;;;6.73;6.10;;;;;;;-1.35;71.29;100615.66;4991775;28;20177;-75
2021/01/17 01:00:42;;;;;;;7.07;6.47;;;;;;;-1.32;70.87;100625.09;4974264;28;20644;-75
2021/01/17 01:03:09;;;;;;;5.20;4.67;;;;;;;-1.33;70.38;100610.88;4992142;28;20192;-75
2021/01/17 01:05:34;;;;;;;5.87;5.37;;;;;;;-1.39;71.29;100621.72;4991933;28;20219;-75
2021/01/17 01:07:59;;;;;;;6.90;6.27;;;;;;;-1.43;70.70;100607.97;4993093;28;20770;-76
2021/01/17 01:10:25;;;;;;;5.07;4.50;;;;;;;-1.37;70.77;100607.03;4992056;28;20208;-75
2021/01/17 01:12:54;;;;;;;6.67;6.07;;;;;;;-1.38;70.21;100609.94;4991989;28;20182;-75
2021/01/17 01:15:21;;;;;;;7.87;7.17;;;;;;;-1.39;69.82;100609.13;4991789;28;20420;-75
2021/01/17 01:17:46;;;;;;;6.93;6.40;;;;;;;-1.38;70.37;100599.22;4991587;28;20447;-75
2021/01/17 01:20:12;;;;;;;6.40;5.80;;;;;;;-1.34;69.95;100606.56;4991674;28;20904;-76
2021/01/17 01:22:43;;;;;;;8.30;7.60;;;;;;;-1.41;71.25;100603.19;4991678;28;20264;-75
2021/01/17 01:25:10;;;;;;;10.07;8.27;;;;;;;-1.41;70.71;100602.38;4991620;28;20209;-76
2021/01/17 01:27:35;;;;;;;6.97;6.33;;;;;;;-1.38;71.75;100601.91;4991278;28;20417;-75
2021/01/17 01:30:01;;;;;;;7.53;6.83;;;;;;;-1.33;71.10;100602.03;4992011;28;20415;-75
2021/01/17 01:32:26;;;;;;;7.47;6.77;;;;;;;-1.35;71.06;100594.22;4990686;28;20244;-77
2021/01/17 01:34:52;;;;;;;10.97;7.83;;;;;;;-1.36;71.50;100589.09;4992103;28;20181;-76
2021/01/17 01:37:17;;;;;;;8.30;7.60;;;;;;;-1.35;71.98;100588.03;4991075;28;20188;-76
2021/01/17 01:39:42;;;;;;;7.57;6.87;;;;;;;-1.24;72.25;100588.06;4991516;28;20185;-75
2021/01/17 01:42:08;;;;;;;7.87;7.17;;;;;;;-1.22;72.21;100591.34;4991240;28;20249;-75
2021/01/17 01:44:34;;;;;;;8.00;7.30;;;;;;;-1.24;72.54;100593.44;4991264;28;20205;-76
2021/01/17 01:47:00;;;;;;;9.43;8.63;;;;;;;-1.28;71.96;100591.47;4990650;28;20177;-76
2021/01/17 01:49:26;;;;;;;8.63;7.83;;;;;;;-1.26;72.45;100590.16;4991838;28;20650;-75
2021/01/17 01:51:53;;;;;;;8.43;7.73;;;;;;;-1.21;71.94;100590.28;4991104;28;20435;-75
2021/01/17 01:54:18;;;;;;;8.20;7.50;;;;;;;-1.28;72.03;100591.47;4991062;28;20224;-76
2021/01/17 01:56:45;;;;;;;7.83;7.13;;;;;;;-1.23;71.71;100597.75;4991013;28;20929;-76
2021/01/17 01:59:10;;;;;;;9.13;8.27;;;;;;;-1.30;72.26;100590.88;4991282;28;20695;-76
2021/01/17 02:01:40;;;;;;;7.90;7.20;;;;;;;-1.28;71.62;100578.88;4991197;28;20537;-76
2021/01/17 02:04:05;;;;;;;8.73;7.93;;;;;;;-1.38;71.63;100589.31;4991147;28;20189;-75
2021/01/17 02:06:32;;;;;;;7.87;7.07;;;;;;;-1.34;72.45;100585.13;4990782;28;20424;-75
2021/01/17 02:09:26;;;;;;;8.20;7.50;;;;;;;-1.29;72.27;100587.13;4991294;28;20181;-75
2021/01/17 02:12:11;;;;;;;8.47;7.77;;;;;;;-1.29;72.25;100573.75;4973934;28;20531;-75
2021/01/17 02:15:12;;;;;;;7.97;7.27;;;;;;;-1.33;72.73;100575.22;4995855;28;20424;-75
2021/01/17 02:17:38;;;;;;;8.30;7.60;;;;;;;-1.32;72.76;100575.00;4994622;28;20420;-75
2021/01/17 02:20:07;;;;;;;8.87;8.03;;;;;;;-1.34;72.68;100573.59;4995137;28;20905;-75
2021/01/17 02:23:01;;;;;;;8.60;7.80;;;;;;;-1.34;73.23;100569.06;4994941;28;20416;-75
2021/01/17 02:25:38;;;;;;;6.90;6.27;;;;;;;-1.29;72.36;100563.84;4995168;28;20429;-75
2021/01/17 02:28:07;;;;;;;8.27;7.57;;;;;;;-1.41;72.90;100556.81;4994446;28;20447;-75
2021/01/17 02:30:36;;;;;;;7.30;6.60;;;;;;;-1.49;72.65;100549.91;4994312;28;20787;-76
2021/01/17 02:33:06;;;;;;;8.17;7.47;;;;;;;-1.63;73.41;100554.66;4994745;28;20498;-75
2021/01/17 02:35:34;;;;;;;8.77;7.97;;;;;;;-1.58;73.45;100556.66;4995049;28;20909;-75
2021/01/17 02:38:22;;;;;;;8.73;7.80;;;;;;;-1.47;73.16;100557.72;4976862;28;20475;-76
2021/01/17 02:40:59;;;;;;;8.60;7.80;;;;;;;-1.39;72.11;100552.03;4996520;28;20901;-75
2021/01/17 02:43:25;;;;;;;10.03;7.37;;;;;;;-1.43;72.47;100554.38;5002725;28;20423;-76
2021/01/17 02:45:50;;;;;;;9.37;8.57;;;;;;;-1.63;72.68;100548.47;4999011;28;20425;-76
2021/01/17 02:48:16;;;;;;;8.63;7.83;;;;;;;-1.47;72.68;100549.69;4994676;28;20185;-76
2021/01/17 02:50:41;;;;;;;7.07;6.37;;;;;;;-1.53;72.11;100543.38;4994039;28;20274;-75
2021/01/17 02:53:26;;;;;;;8.40;7.60;;;;;;;-1.64;72.69;100546.84;4994545;28;20208;-75
2021/01/17 02:55:54;;;;;;;7.37;6.67;;;;;;;-1.65;72.82;100543.34;4994179;28;20181;-76
2021/01/17 02:58:19;;;;;;;8.23;7.43;;;;;;;-1.63;73.21;100540.44;4976657;28;20932;-76
2021/01/17 03:00:48;;;;;;;8.67;7.97;;;;;;;-1.72;73.37;100544.50;4994498;28;20466;-74
2021/01/17 03:03:14;;;;;;;9.47;8.57;;;;;;;-1.76;73.93;100543.31;4994342;28;20181;-76
2021/01/17 03:05:40;;;;;;;8.47;7.67;;;;;;;-1.71;73.34;100538.09;4976734;28;21091;-75
2021/01/17 03:08:07;;;;;;;8.90;8.03;;;;;;;-1.72;73.42;100533.78;4993852;28;20455;-76
2021/01/17 03:10:33;;;;;;;8.60;7.80;;;;;;;-1.79;73.45;100531.19;4993914;28;20420;-76
2021/01/17 03:13:00;;;;;;;8.97;8.17;;;;;;;-1.73;73.75;100534.84;4993879;28;20475;-76
2021/01/17 03:15:26;;;;;;;8.97;7.80;;;;;;;-1.63;73.17;100533.22;4993335;28;20265;-76
2021/01/17 03:17:52;;;;;;;8.03;7.33;;;;;;;-1.59;72.72;100529.06;4993796;28;20420;-76
2021/01/17 03:20:17;;;;;;;8.87;8.00;;;;;;;-1.61;72.32;100524.94;4993901;28;20681;-76
2021/01/17 03:22:42;;;;;;;8.13;7.43;;;;;;;-1.66;72.70;100525.66;4993925;28;20268;-76
2021/01/17 03:25:08;;;;;;;8.97;8.17;;;;;;;-1.62;72.19;100534.03;4993545;28;20185;-76
2021/01/17 03:27:34;;;;;;;8.07;7.37;;;;;;;-1.59;72.27;100533.56;4993278;28;20184;-76
2021/01/17 03:29:59;;;;;;;7.93;6.63;;;;;;;-1.57;71.97;100528.81;4993962;28;20228;-76
2021/01/17 03:32:24;;;;;;;8.10;7.40;;;;;;;-1.55;72.04;100534.78;4993183;28;20217;-76
2021/01/17 03:34:50;;;;;;;8.70;8.00;;;;;;;-1.72;72.25;100528.44;4976211;28;20204;-75
2021/01/17 03:37:16;;;;;;;8.53;7.73;;;;;;;-1.72;72.56;100534.63;4993181;28;20200;-76
2021/01/17 03:39:42;;;;;;;8.73;7.93;;;;;;;-1.66;72.54;100538.22;4993653;28;20178;-76
2021/01/17 03:42:08;;;;;;;8.50;7.77;;;;;;;-1.62;72.52;100536.72;4993905;28;20498;-76
2021/01/17 03:44:34;;;;;;;9.37;8.57;;;;;;;-1.54;72.19;100539.91;4993503;28;20181;-75
2021/01/17 03:46:59;;;;;;;9.23;8.20;;;;;;;-1.56;72.25;100539.31;4993263;28;20419;-76
2021/01/17 03:49:24;;;;;;;10.00;9.10;;;;;;;-1.51;72.33;100538.63;4976002;28;20300;-75
2021/01/17 03:51:49;;;;;;;9.17;8.27;;;;;;;-1.56;72.71;100530.47;4993247;28;20240;-75
2021/01/17 03:54:15;;;;;;;9.47;8.67;;;;;;;-1.56;72.47;100530.47;4975688;28;20177;-76
2021/01/17 03:56:40;;;;;;;7.07;6.47;;;;;;;-1.56;72.13;100533.13;4993089;28;20189;-75
2021/01/17 03:59:05;;;;;;;9.17;8.37;;;;;;;-1.56;71.83;100539.31;4993453;28;20181;-75
2021/01/17 04:01:31;;;;;;;9.00;8.20;;;;;;;-1.62;72.12;100537.53;4993815;28;20213;-76
2021/01/17 04:04:00;;;;;;;8.90;8.10;;;;;;;-1.51;72.16;100534.06;4993667;28;20197;-75
2021/01/17 04:06:25;;;;;;;8.30;7.50;;;;;;;-1.51;72.14;100530.56;4993310;28;20192;-75
2021/01/17 04:08:51;;;;;;;8.63;7.83;;;;;;;-1.52;71.93;100531.63;4993769;28;20421;-76
2021/01/17 04:11:16;;;;;;;7.80;7.10;;;;;;;-1.51;71.70;100533.25;4993547;28;20564;-75
2021/01/17 04:13:42;;;;;;;7.90;7.20;;;;;;;-1.59;72.21;100534.41;4993708;28;20181;-75
2021/01/17 04:16:08;;;;;;;14.03;12.73;;;;;;;-1.69;72.10;100536.81;4993263;28;20533;-76
2021/01/17 04:18:33;;;;;;;9.87;9.07;;;;;;;-1.68;72.14;100530.44;4993184;28;20177;-76
2021/01/17 04:20:58;;;;;;;8.40;7.70;;;;;;;-1.63;72.67;100532.41;4993267;28;20480;-75
2021/01/17 04:23:24;;;;;;;8.40;7.60;;;;;;;-1.62;72.42;100534.84;4993406;28;20566;-75
2021/01/17 04:25:50;;;;;;;8.10;7.40;;;;;;;-1.72;72.31;100533.78;4993187;28;20208;-76
2021/01/17 04:28:15;;;;;;;8.93;8.17;;;;;;;-1.75;71.91;100528.88;4992732;28;20174;-76
2021/01/17 04:30:40;;;;;;;9.43;8.53;;;;;;;-1.80;72.33;100525.03;4992459;28;20432;-75
2021/01/17 04:33:06;;;;;;;8.83;8.03;;;;;;;-1.78;72.04;100530.16;4993234;28;20256;-75
2021/01/17 04:35:31;;;;;;;8.80;7.93;;;;;;;-1.75;72.27;100528.88;4992194;28;20188;-76
2021/01/17 04:37:58;;;;;;;8.67;7.97;;;;;;;-1.75;72.58;100523.53;4992158;28;20470;-76
2021/01/17 04:40:26;;;;;;;8.37;7.60;;;;;;;-1.77;72.48;100526.44;4992362;28;20284;-76
2021/01/17 04:43:07;;;;;;;7.67;6.97;;;;;;;-1.67;72.48;100529.38;4992450;28;20929;-76
2021/01/17 04:45:34;;;;;;;8.63;7.77;;;;;;;-1.62;72.24;100529.50;4975196;28;20877;-75
2021/01/17 04:48:01;;;;;;;8.77;7.97;;;;;;;-1.64;72.58;100536.94;4992153;28;20428;-76
2021/01/17 04:50:30;;;;;;;9.10;8.30;;;;;;;-1.62;72.24;100531.34;4992395;28;20486;-75
2021/01/17 04:53:03;;;;;;;8.23;7.53;;;;;;;-1.52;71.81;100535.13;4992651;28;20432;-76
2021/01/17 04:55:30;;;;;;;8.70;7.90;;;;;;;-1.60;71.67;100526.59;4992612;28;20420;-75
2021/01/17 04:58:05;;;;;;;12.23;11.13;;;;;;;-1.54;71.67;100533.72;4992351;28;20479;-76
2021/01/17 05:00:32;;;;;;;8.73;8.03;;;;;;;-1.54;71.30;100531.03;4992625;28;20455;-76
2021/01/17 05:03:10;;;;;;;9.47;8.57;;;;;;;-1.64;71.68;100528.91;4992330;28;20460;-75
2021/01/17 05:05:59;;;;;;;9.30;8.50;;;;;;;-1.61;71.38;100528.44;4992128;28;20494;-76
2021/01/17 05:08:29;;;;;;;10.33;8.27;;;;;;;-1.69;72.01;100527.97;4943906;28;20910;-75
2021/01/17 05:11:05;;;;;;;9.10;8.20;;;;;;;-1.59;71.75;100531.75;4974552;28;20425;-77
2021/01/17 05:13:48;;;;;;;8.20;7.50;;;;;;;-1.63;72.27;100529.72;4992116;28;20409;-75
2021/01/17 05:16:15;;;;;;;9.40;8.50;;;;;;;-1.56;71.43;100533.13;4991564;28;20427;-76
2021/01/17 05:18:48;;;;;;;10.33;7.93;;;;;;;-1.57;71.56;100539.53;4974536;28;20527;-75
2021/01/17 05:21:19;;;;;;;9.97;9.07;;;;;;;-1.61;71.39;100544.53;4991858;28;20555;-75
2021/01/17 05:23:47;;;;;;;8.93;8.13;;;;;;;-1.67;72.50;100547.31;4991871;28;20412;-76
2021/01/17 05:26:13;;;;;;;10.47;9.57;;;;;;;-1.73;71.63;100549.06;4991185;28;21189;-75
2021/01/17 05:28:38;;;;;;;10.20;9.23;;;;;;;-1.68;71.81;100543.00;4991730;28;20428;-75
2021/01/17 05:31:03;;;;;;;9.73;8.83;;;;;;;-1.77;72.11;100536.31;4991323;28;20486;-76
2021/01/17 05:33:31;;;;;;;10.17;9.27;;;;;;;-1.74;72.54;100544.72;4991679;28;20557;-75
2021/01/17 05:35:58;;;;;;;10.07;9.17;;;;;;;-1.84;72.64;100542.59;4991540;28;20179;-76
2021/01/17 05:38:24;;;;;;;10.27;9.27;;;;;;;-1.73;72.29;100543.69;4991494;28;20432;-76
2021/01/17 05:40:49;;;;;;;10.10;9.20;;;;;;;-1.68;72.14;100553.72;4974109;28;20570;-75
2021/01/17 05:43:15;;;;;;;9.87;8.90;;;;;;;-1.72;72.59;100561.38;4991640;28;20511;-75
2021/01/17 05:45:40;;;;;;;11.10;10.13;;;;;;;-1.76;72.17;100552.16;4991535;28;20177;-76
2021/01/17 05:48:06;;;;;;;10.57;9.47;;;;;;;-1.72;72.11;100552.53;4972861;28;20173;-75
2021/01/17 05:50:33;;;;;;;10.40;9.47;;;;;;;-1.68;72.35;100553.72;4991479;28;20714;-76
2021/01/17 05:53:01;;;;;;;10.30;9.23;;;;;;;-1.62;72.24;100558.16;4991343;28;20181;-76
2021/01/17 05:55:29;;;;;;;22.30;14.80;;;;;;;-1.60;72.62;100558.72;4991486;28;20790;-76
2021/01/17 05:57:55;;;;;;;13.93;12.43;;;;;;;-1.46;72.40;100560.16;4991130;28;20496;-75
2021/01/17 06:00:33;;;;;;;15.23;13.53;;;;;;;-1.46;73.03;100554.81;4991237;28;20524;-76
2021/01/17 06:03:01;;;;;;;52.63;24.10;;;;;;;-1.53;72.44;100556.78;4991367;28;20244;-76
2021/01/17 06:05:28;;;;;;;33.40;19.90;;;;;;;-1.54;72.44;100555.97;4991205;28;20427;-75
2021/01/17 06:07:54;;;;;;;19.37;15.00;;;;;;;-1.58;72.74;100551.31;4990739;28;20527;-75
2021/01/17 06:10:26;;;;;;;27.53;17.30;;;;;;;-1.57;72.98;100561.78;4973787;28;20491;-76
2021/01/17 06:12:52;;;;;;;60.33;26.40;;;;;;;-1.52;72.65;100558.41;4991222;28;20483;-76
2021/01/17 06:15:17;;;;;;;20.07;15.37;;;;;;;-1.48;72.80;100564.94;4973909;28;20448;-76
2021/01/17 06:17:47;;;;;;;14.43;13.13;;;;;;;-1.43;72.30;100570.44;4990856;28;20714;-75
2021/01/17 06:20:24;;;;;;;13.87;12.77;;;;;;;-1.49;72.58;100571.34;4973622;28;20690;-76
2021/01/17 06:22:55;;;;;;;12.87;11.70;;;;;;;-1.39;72.65;100565.44;4973642;28;20432;-76
2021/01/17 06:25:29;;;;;;;12.13;11.03;;;;;;;-1.41;71.74;100562.19;4991108;28;20499;-76
2021/01/17 06:28:08;;;;;;;11.60;10.40;;;;;;;-1.38;72.05;100572.44;4990748;28;20444;-76
2021/01/17 06:30:34;;;;;;;11.90;10.70;;;;;;;-1.43;71.71;100565.09;4990501;28;20920;-76
2021/01/17 06:33:01;;;;;;;12.23;11.13;;;;;;;-1.44;72.51;100574.19;4973705;28;20417;-75
2021/01/17 06:35:34;;;;;;;12.23;11.13;;;;;;;-1.49;72.21;100566.00;4991045;28;20181;-76
2021/01/17 06:38:20;;;;;;;12.67;11.50;;;;;;;-1.53;72.36;100572.84;4991006;28;20419;-76
2021/01/17 06:40:47;;;;;;;12.23;11.13;;;;;;;-1.44;72.19;100571.50;4990828;28;20451;-76
2021/01/17 06:43:14;;;;;;;12.47;11.33;;;;;;;-1.36;72.67;100581.88;4991025;28;20412;-76
2021/01/17 06:45:44;;;;;;;12.63;11.37;;;;;;;-1.45;72.04;100583.22;4990900;28;20916;-76
2021/01/17 06:48:21;;;;;;;12.20;11.10;;;;;;;-1.30;71.96;100586.31;4990790;28;20726;-76
2021/01/17 06:50:46;;;;;;;10.73;9.73;;;;;;;-1.30;71.50;100583.66;4990802;28;20443;-76
2021/01/17 06:53:21;;;;;;;12.30;11.20;;;;;;;-1.24;71.30;100584.56;4990822;28;20451;-76
2021/01/17 06:55:47;;;;;;;12.13;11.13;;;;;;;-1.28;72.57;100586.09;4990836;28;20153;-76
2021/01/17 06:58:17;;;;;;;11.87;10.87;;;;;;;-1.25;72.28;100585.63;4991138;28;20427;-75
2021/01/17 07:00:45;;;;;;;12.83;11.53;;;;;;;-1.40;72.24;100593.28;4994471;28;20189;-77
2021/01/17 07:03:16;;;;;;;12.47;11.37;;;;;;;-1.36;72.49;100600.63;4994492;28;20470;-76
2021/01/17 07:06:05;;;;;;;11.53;10.47;;;;;;;-1.19;71.76;100608.81;4994331;28;20417;-76
2021/01/17 07:08:58;;;;;;;11.63;10.63;;;;;;;-1.14;71.67;100603.59;4994263;28;20408;-76
2021/01/17 07:11:32;;;;;;;12.33;11.17;;;;;;;-1.29;72.33;100604.03;4976729;28;20443;-77
2021/01/17 07:14:05;;;;;;;12.57;11.37;;;;;;;-1.21;72.38;100609.06;4994286;28;20424;-76
2021/01/17 07:16:32;;;;;;;13.33;10.87;;;;;;;-1.27;72.98;100604.63;4993777;28;20680;-76
2021/01/17 07:19:03;;;;;;;12.47;11.27;;;;;;;-1.31;72.50;100603.44;4976708;28;20413;-77
2021/01/17 07:21:35;;;;;;;13.60;12.30;;;;;;;-1.31;73.93;100605.28;4993986;28;20538;-76
2021/01/17 07:24:03;;;;;;;14.03;12.73;;;;;;;-1.29;74.25;100611.25;4994136;28;20813;-76
2021/01/17 07:26:36;;;;;;;12.77;11.43;;;;;;;-1.37;74.31;100603.53;4993582;28;20421;-77
2021/01/17 07:29:03;;;;;;;13.27;11.87;;;;;;;-1.41;75.15;100610.41;4994092;28;20500;-75
2021/01/17 07:31:35;;;;;;;46.50;22.07;;;;;;;-1.56;76.41;100613.50;4993460;28;20428;-76
2021/01/17 07:34:12;;;;;;;18.77;14.83;;;;;;;-1.47;76.28;100603.25;4993796;28;20896;-77
2021/01/17 07:36:45;;;;;;;10.93;8.63;;;;;;;-1.52;77.08;100615.50;4973983;28;20905;-76
2021/01/17 07:39:12;;;;;;;13.67;12.37;;;;;;;-1.60;77.37;100613.13;4974256;28;20410;-76
2021/01/17 07:41:45;;;;;;;15.47;13.97;;;;;;;-1.69;78.25;100617.16;4974348;28;20504;-76
2021/01/17 07:44:15;;;;;;;15.23;13.73;;;;;;;-1.69;78.53;100617.16;4974316;28;20420;-76
2021/01/17 07:46:41;;;;;;;15.37;13.87;;;;;;;-1.71;79.20;100616.59;4974040;28;20520;-75
2021/01/17 07:49:10;;;;;;;15.77;14.27;;;;;;;-1.63;79.57;100618.13;4974244;28;20906;-76
2021/01/17 07:51:35;;;;;;;15.47;13.67;;;;;;;-1.76;80.11;100619.09;4957103;28;20185;-75
2021/01/17 07:54:24;;;;;;;16.17;14.53;;;;;;;-1.83;80.67;100626.41;4993105;28;20424;-76
2021/01/17 07:56:51;;;;;;;14.77;13.37;;;;;;;-1.93;81.50;100636.84;4992734;28;20272;-76
2021/01/17 07:59:24;;;;;;;16.57;14.87;;;;;;;-1.90;81.92;100639.88;4993345;28;20485;-77
2021/01/17 08:01:50;;;;;;;13.73;12.27;;;;;;;-1.88;82.50;100627.09;4993076;28;20464;-76
2021/01/17 08:04:18;;;;;;;17.33;14.90;;;;;;;-1.84;82.77;100636.31;4993056;28;20474;-76
2021/01/17 08:06:46;;;;;;;17.10;15.30;;;;;;;-1.94;83.40;100630.66;4991381;28;20455;-76
2021/01/17 08:09:14;;;;;;;20.83;17.30;;;;;;;-1.92;83.50;100635.78;4992493;28;20531;-76
2021/01/17 08:11:56;;;;;;;21.07;18.87;;;;;;;-2.04;84.17;100634.91;4992435;28;20602;-76
2021/01/17 08:14:23;;;;;;;18.20;16.40;;;;;;;-1.97;84.33;100632.97;4992977;28;20428;-75
2021/01/17 08:17:13;;;;;;;19.40;17.50;;;;;;;-1.89;83.88;100638.00;4992351;28;20431;-76
2021/01/17 08:19:46;;;;;;;18.57;16.80;;;;;;;-1.94;84.30;100638.69;4992833;28;20904;-76
2021/01/17 08:22:17;;;;;;;17.77;15.93;;;;;;;-1.91;84.76;100635.56;4992956;28;20500;-76
2021/01/17 08:25:03;;;;;;;18.03;16.17;;;;;;;-1.77;84.59;100646.94;4992895;28;20515;-76
2021/01/17 08:27:32;;;;;;;17.87;16.03;;;;;;;-1.69;84.11;100646.63;4992187;28;20436;-76
2021/01/17 08:30:00;;;;;;;11.33;9.13;;;;;;;-1.69;83.87;100659.22;4992877;28;20416;-75
2021/01/17 08:32:34;;;;;;;20.37;17.73;;;;;;;-1.91;83.87;100654.31;4992837;28;20452;-75
2021/01/17 08:35:20;;;;;;;19.90;16.07;;;;;;;-1.85;84.95;100650.75;4992698;28;20411;-76
2021/01/17 08:37:56;;;;;;;17.40;15.63;;;;;;;-1.83;85.28;100658.56;4991933;28;20420;-75
2021/01/17 08:40:28;;;;;;;21.83;17.73;;;;;;;-1.76;84.68;100661.94;4992374;28;20954;-76
2021/01/17 08:42:56;;;;;;;20.27;17.93;;;;;;;-1.70;84.69;100665.59;4992470;28;20425;-75
2021/01/17 08:45:21;;;;;;;21.07;18.10;;;;;;;-1.72;85.01;100665.03;4992870;28;20421;-76
2021/01/17 08:47:52;;;;;;;18.00;16.23;;;;;;;-1.75;85.21;100668.94;4997873;28;20415;-75
2021/01/17 08:50:37;;;;;;;20.70;18.50;;;;;;;-1.67;85.46;100665.16;4993382;28;20169;-76
2021/01/17 08:53:10;;;;;;;27.20;20.10;;;;;;;-1.74;85.82;100662.53;4992628;28;20463;-76
2021/01/17 08:55:40;;;;;;;56.73;24.07;;;;;;;-1.72;84.89;100668.50;4992718;28;20423;-76
2021/01/17 08:58:05;;;;;;;72.00;27.80;;;;;;;-1.79;86.00;100670.44;4992360;28;20416;-76
2021/01/17 09:00:49;;;;;;;35.83;24.00;;;;;;;-1.74;85.46;100673.25;4992163;28;20491;-76
2021/01/17 09:03:37;;;;;;;25.30;20.00;;;;;;;-1.78;85.92;100684.66;4992304;28;20169;-75
2021/01/17 09:06:05;;;;;;;21.40;18.73;;;;;;;-1.69;85.55;100683.31;4992093;28;20793;-76
2021/01/17 09:08:33;;;;;;;21.87;19.67;;;;;;;-1.61;84.81;100685.66;4992001;28;20853;-76
2021/01/17 09:10:59;;;;;;;24.40;21.97;;;;;;;-1.60;84.95;100695.34;4992177;28;20503;-75
2021/01/17 09:13:31;;;;;;;20.83;18.50;;;;;;;-1.57;84.99;100692.22;4991917;28;20426;-75
2021/01/17 09:16:06;;;;;;;22.47;20.03;;;;;;;-1.87;84.86;100689.50;4991934;28;20420;-76
2021/01/17 09:18:38;;;;;;;23.93;19.53;;;;;;;-1.70;85.26;100703.91;4991820;28;20423;-76
2021/01/17 09:21:05;;;;;;;20.40;18.27;;;;;;;-1.61;85.21;100704.41;4991636;28;20959;-75
2021/01/17 09:23:37;;;;;;;23.67;18.77;;;;;;;-1.65;85.60;100716.63;4991839;28;20778;-76
2021/01/17 09:26:04;;;;;;;21.60;18.47;;;;;;;-1.53;85.13;100718.34;4991709;28;20555;-76
2021/01/17 09:28:30;;;;;;;22.20;19.43;;;;;;;-1.51;85.08;100716.25;4990396;28;20940;-80
2021/01/17 09:31:08;;;;;;;27.27;18.60;;;;;;;-1.56;84.67;100715.28;4991153;28;20428;-76
2021/01/17 09:33:36;;;;;;;21.80;18.90;;;;;;;-1.55;84.69;100715.06;4991571;28;20420;-75
2021/01/17 09:36:07;;;;;;;20.77;17.90;;;;;;;-1.54;84.30;100715.88;4991108;28;20451;-76
2021/01/17 09:38:36;;;;;;;26.50;20.50;;;;;;;-1.47;84.72;100723.81;4991437;28;20499;-76
2021/01/17 09:41:02;;;;;;;22.23;18.80;;;;;;;-1.42;84.64;100718.63;4991445;28;20483;-76
2021/01/17 09:43:27;;;;;;;26.33;18.90;;;;;;;-1.33;84.15;100719.94;4991576;28;20893;-76
2021/01/17 09:45:57;;;;;;;24.37;20.57;;;;;;;-1.41;83.83;100731.78;4991460;28;20224;-75
2021/01/17 09:48:24;;;;;;;21.93;18.60;;;;;;;-1.42;83.21;100732.03;4991309;28;20264;-76
2021/01/17 09:50:50;;;;;;;39.13;25.80;;;;;;;-1.36;83.60;100736.47;4991571;28;20435;-77
2021/01/17 09:53:17;;;;;;;32.40;23.33;;;;;;;-1.34;83.72;100729.84;4991313;28;20427;-78
2021/01/17 09:55:44;;;;;;;32.67;23.63;;;;;;;-1.34;84.26;100734.38;4991515;28;20420;-79
2021/01/17 09:58:14;;;;;;;23.20;20.47;;;;;;;-1.28;83.93;100731.63;4990863;28;20424;-79
2021/01/17 10:00:41;;;;;;;22.07;18.90;;;;;;;-1.29;83.48;100746.06;4991287;28;20520;-76
2021/01/17 10:03:15;;;;;;;19.67;17.53;;;;;;;-1.28;83.75;100741.53;4973939;28;20431;-77
2021/01/17 10:05:42;;;;;;;25.27;17.70;;;;;;;-1.26;83.48;100734.91;4991693;28;20444;-77
2021/01/17 10:08:11;;;;;;;24.87;22.13;;;;;;;-1.18;83.23;100740.97;4990946;28;20777;-77
2021/01/17 10:10:38;;;;;;;23.33;19.37;;;;;;;-1.06;82.75;100739.97;4991488;28;20769;-76
2021/01/17 10:13:05;;;;;;;19.23;17.33;;;;;;;-1.12;82.48;100745.44;4991356;28;20924;-76
2021/01/17 10:15:31;;;;;;;20.57;18.47;;;;;;;-1.09;82.19;100753.03;4991247;28;20420;-77
2021/01/17 10:17:56;;;;;;;20.97;18.47;;;;;;;-1.15;82.11;100740.53;4991041;28;20563;-77
2021/01/17 10:20:23;;;;;;;20.23;18.13;;;;;;;-1.17;81.68;100750.66;4975837;28;20204;-77
2021/01/17 10:22:55;;;;;;;21.07;18.03;;;;;;;-1.13;82.33;100749.16;4991136;28;20181;-77
2021/01/17 10:25:20;;;;;;;22.50;20.20;;;;;;;-1.18;82.69;100749.84;4973639;28;20442;-77
2021/01/17 10:27:47;;;;;;;20.37;18.23;;;;;;;-1.09;82.16;100755.72;4990001;28;20741;-77
2021/01/17 10:30:22;;;;;;;20.37;17.97;;;;;;;-1.14;82.28;100755.59;4991042;28;20173;-78
2021/01/17 10:32:48;;;;;;;22.37;19.30;;;;;;;-1.22;81.90;100752.16;4991318;28;20451;-77
2021/01/17 10:35:20;;;;;;;20.37;18.37;;;;;;;-1.10;81.99;100746.03;4994947;28;20412;-77
2021/01/17 10:37:49;;;;;;;21.23;18.87;;;;;;;-1.11;82.27;100750.56;4976986;28;20409;-76
2021/01/17 10:40:15;;;;;;;20.63;18.43;;;;;;;-1.08;82.26;100751.97;4994860;28;20412;-77
2021/01/17 10:42:41;;;;;;;21.37;19.07;;;;;;;-1.04;80.60;100747.78;4994815;28;20515;-77
2021/01/17 10:45:10;;;;;;;20.27;18.20;;;;;;;-1.04;80.65;100745.94;4995030;28;20457;-77
2021/01/17 10:48:02;;;;;;;21.70;18.80;;;;;;;-0.99;80.52;100747.94;4994062;28;20515;-79
2021/01/17 10:50:30;;;;;;;19.97;17.67;;;;;;;-1.00;80.47;100751.69;4994516;28;20421;-77
2021/01/17 10:53:17;;;;;;;19.80;17.43;;;;;;;-1.04;81.00;100748.59;4994421;28;20482;-77
2021/01/17 10:55:45;;;;;;;21.83;18.57;;;;;;;-1.16;80.69;100750.41;4994611;28;20424;-78
2021/01/17 10:58:22;;;;;;;21.23;19.00;;;;;;;-1.13;81.58;100752.66;4993554;28;20436;-80
2021/01/17 11:00:51;;;;;;;20.63;17.47;;;;;;;-0.98;82.00;100742.34;4994448;28;20495;-79
2021/01/17 11:03:27;;;;;;;22.57;18.23;;;;;;;-0.85;81.26;100753.94;4993609;28;20486;-80
2021/01/17 11:06:10;;;;;;;21.13;18.93;;;;;;;-0.81;81.38;100750.56;4994427;28;20404;-81
2021/01/17 11:08:40;;;;;;;21.50;18.30;;;;;;;-0.76;81.15;100744.50;4994553;28;20507;-80
2021/01/17 11:11:06;;;;;;;25.80;20.03;;;;;;;-0.78;81.57;100738.56;4994275;28;20824;-80
2021/01/17 11:13:32;;;;;;;21.03;18.77;;;;;;;-0.68;81.33;100744.19;4993002;28;20432;-80
2021/01/17 11:15:57;;;;;;;22.17;19.47;;;;;;;-0.66;80.50;100734.84;4994107;28;20792;-80
2021/01/17 11:18:22;;;;;;;18.80;16.37;;;;;;;-0.54;80.09;100736.75;4993745;28;20656;-80
2021/01/17 11:20:54;;;;;;;20.13;18.00;;;;;;;-0.49;79.91;100742.22;4993924;28;20653;-80
2021/01/17 11:23:23;;;;;;;21.77;19.53;;;;;;;-0.50;79.43;100733.38;4993086;28;20216;-80
2021/01/17 11:25:56;;;;;;;23.80;19.80;;;;;;;-0.46;80.30;100739.91;4993934;28;20923;-80
2021/01/17 11:28:23;;;;;;;21.13;19.13;;;;;;;-0.47;79.95;100740.13;4992101;28;20432;-81